sensor_id;sensor_type;location;lat;lon;timestamp;pressure;altitude;pressure_sealevel;temperature
41940;BMP180;23057;48.554;14.454;2023-03-01T00:01:31;94350.00;;;4.80
41940;BMP180;23057;48.554;14.454;2023-03-01T00:04:02;94345.00;;;4.70
41940;BMP180;23057;48.554;14.454;2023-03-01T00:06:33;94339.00;;;4.70
41940;BMP180;23057;48.554;14.454;2023-03-01T00:09:04;94336.00;;;4.70
41940;BMP180;23057;48.554;14.454;2023-03-01T00:11:34;94329.00;;;4.70
41940;BMP180;23057;48.554;14.454;2023-03-01T00:14:05;94328.00;;;4.70
41940;BMP180;23057;48.554;14.454;2023-03-01T00:16:39;94329.00;;;4.70
41940;BMP180;23057;48.554;14.454;2023-03-01T00:19:13;94329.00;;;4.60
41940;BMP180;23057;48.554;14.454;2023-03-01T00:21:46;94322.00;;;4.60
41940;BMP180;23057;48.554;14.454;2023-03-01T00:24:17;94329.00;;;4.60
41940;BMP180;23057;48.554;14.454;2023-03-01T00:26:47;94328.00;;;4.60
41940;BMP180;23057;48.554;14.454;2023-03-01T00:29:18;94328.00;;;4.50
41940;BMP180;23057;48.554;14.454;2023-03-01T00:31:49;94329.00;;;4.50
41940;BMP180;23057;48.554;14.454;2023-03-01T00:34:19;94321.00;;;4.50
41940;BMP180;23057;48.554;14.454;2023-03-01T00:36:50;94324.00;;;4.50
41940;BMP180;23057;48.554;14.454;2023-03-01T00:39:21;94331.00;;;4.50
41940;BMP180;23057;48.554;14.454;2023-03-01T00:41:52;94331.00;;;4.50
41940;BMP180;23057;48.554;14.454;2023-03-01T00:44:22;94324.00;;;4.50
41940;BMP180;23057;48.554;14.454;2023-03-01T00:46:53;94322.00;;;4.50
41940;BMP180;23057;48.554;14.454;2023-03-01T00:49:24;94307.00;;;4.50
41940;BMP180;23057;48.554;14.454;2023-03-01T00:51:57;94310.00;;;4.50
41940;BMP180;23057;48.554;14.454;2023-03-01T00:54:28;94305.00;;;4.50
41940;BMP180;23057;48.554;14.454;2023-03-01T00:56:59;94298.00;;;4.40
41940;BMP180;23057;48.554;14.454;2023-03-01T00:59:30;94301.00;;;4.40
41940;BMP180;23057;48.554;14.454;2023-03-01T01:02:01;94295.00;;;4.40
41940;BMP180;23057;48.554;14.454;2023-03-01T01:04:31;94292.00;;;4.40
41940;BMP180;23057;48.554;14.454;2023-03-01T01:07:02;94303.00;;;4.40
41940;BMP180;23057;48.554;14.454;2023-03-01T01:09:33;94297.00;;;4.40
41940;BMP180;23057;48.554;14.454;2023-03-01T01:12:04;94295.00;;;4.40
41940;BMP180;23057;48.554;14.454;2023-03-01T01:14:35;94293.00;;;4.40
41940;BMP180;23057;48.554;14.454;2023-03-01T01:17:06;94302.00;;;4.40
41940;BMP180;23057;48.554;14.454;2023-03-01T01:19:36;94298.00;;;4.40
41940;BMP180;23057;48.554;14.454;2023-03-01T01:22:07;94294.00;;;4.40
41940;BMP180;23057;48.554;14.454;2023-03-01T01:24:38;94296.00;;;4.40
41940;BMP180;23057;48.554;14.454;2023-03-01T01:27:09;94296.00;;;4.40
41940;BMP180;23057;48.554;14.454;2023-03-01T01:29:39;94285.00;;;4.30
41940;BMP180;23057;48.554;14.454;2023-03-01T01:32:12;94285.00;;;4.30
41940;BMP180;23057;48.554;14.454;2023-03-01T01:34:43;94288.00;;;4.30
41940;BMP180;23057;48.554;14.454;2023-03-01T01:37:13;94289.00;;;4.30
41940;BMP180;23057;48.554;14.454;2023-03-01T01:39:44;94290.00;;;4.20
41940;BMP180;23057;48.554;14.454;2023-03-01T01:42:16;94281.00;;;4.20
41940;BMP180;23057;48.554;14.454;2023-03-01T01:44:48;94272.00;;;4.20
41940;BMP180;23057;48.554;14.454;2023-03-01T01:47:22;94267.00;;;4.10
41940;BMP180;23057;48.554;14.454;2023-03-01T01:49:54;94272.00;;;4.10
41940;BMP180;23057;48.554;14.454;2023-03-01T01:52:31;94258.00;;;4.10
41940;BMP180;23057;48.554;14.454;2023-03-01T01:55:08;94257.00;;;4.10
41940;BMP180;23057;48.554;14.454;2023-03-01T01:57:47;94255.00;;;4.00
41940;BMP180;23057;48.554;14.454;2023-03-01T02:00:25;94264.00;;;4.00
41940;BMP180;23057;48.554;14.454;2023-03-01T02:03:01;94262.00;;;4.10
41940;BMP180;23057;48.554;14.454;2023-03-01T02:05:45;94255.00;;;4.00
41940;BMP180;23057;48.554;14.454;2023-03-01T02:08:23;94251.00;;;4.00
41940;BMP180;23057;48.554;14.454;2023-03-01T02:10:58;94248.00;;;4.00
41940;BMP180;23057;48.554;14.454;2023-03-01T02:13:31;94245.00;;;3.90
41940;BMP180;23057;48.554;14.454;2023-03-01T02:16:05;94242.00;;;3.90
41940;BMP180;23057;48.554;14.454;2023-03-01T02:18:41;94249.00;;;3.90
41940;BMP180;23057;48.554;14.454;2023-03-01T02:24:34;94247.00;;;3.80
41940;BMP180;23057;48.554;14.454;2023-03-01T02:27:15;94245.00;;;3.90
41940;BMP180;23057;48.554;14.454;2023-03-01T02:29:48;94256.00;;;3.90
41940;BMP180;23057;48.554;14.454;2023-03-01T02:32:19;94257.00;;;3.90
41940;BMP180;23057;48.554;14.454;2023-03-01T02:34:55;94252.00;;;3.90
41940;BMP180;23057;48.554;14.454;2023-03-01T02:37:27;94247.00;;;3.90
41940;BMP180;23057;48.554;14.454;2023-03-01T02:40:03;94253.00;;;3.90
41940;BMP180;23057;48.554;14.454;2023-03-01T02:42:43;94266.00;;;3.90
41940;BMP180;23057;48.554;14.454;2023-03-01T02:45:20;94255.00;;;3.90
41940;BMP180;23057;48.554;14.454;2023-03-01T02:47:55;94264.00;;;3.80
41940;BMP180;23057;48.554;14.454;2023-03-01T02:53:11;94245.00;;;3.70
41940;BMP180;23057;48.554;14.454;2023-03-01T02:55:47;94243.00;;;3.60
41940;BMP180;23057;48.554;14.454;2023-03-01T02:58:19;94229.00;;;3.60
41940;BMP180;23057;48.554;14.454;2023-03-01T03:00:50;94234.00;;;3.60
41940;BMP180;23057;48.554;14.454;2023-03-01T03:03:21;94226.00;;;3.60
41940;BMP180;23057;48.554;14.454;2023-03-01T03:05:52;94227.00;;;3.60
41940;BMP180;23057;48.554;14.454;2023-03-01T03:08:23;94222.00;;;3.50
41940;BMP180;23057;48.554;14.454;2023-03-01T03:10:54;94226.00;;;3.50
41940;BMP180;23057;48.554;14.454;2023-03-01T03:13:24;94226.00;;;3.50
41940;BMP180;23057;48.554;14.454;2023-03-01T03:15:58;94229.00;;;3.40
41940;BMP180;23057;48.554;14.454;2023-03-01T03:18:29;94223.00;;;3.40
41940;BMP180;23057;48.554;14.454;2023-03-01T03:21:00;94228.00;;;3.40
41940;BMP180;23057;48.554;14.454;2023-03-01T03:23:30;94220.00;;;3.30
41940;BMP180;23057;48.554;14.454;2023-03-01T03:26:02;94222.00;;;3.30
41940;BMP180;23057;48.554;14.454;2023-03-01T03:28:35;94233.00;;;3.30
41940;BMP180;23057;48.554;14.454;2023-03-01T03:31:06;94229.00;;;3.20
41940;BMP180;23057;48.554;14.454;2023-03-01T03:33:38;94223.00;;;3.20
41940;BMP180;23057;48.554;14.454;2023-03-01T03:36:09;94218.00;;;3.20
41940;BMP180;23057;48.554;14.454;2023-03-01T03:38:44;94215.00;;;3.10
41940;BMP180;23057;48.554;14.454;2023-03-01T03:41:16;94214.00;;;3.10
41940;BMP180;23057;48.554;14.454;2023-03-01T03:43:47;94215.00;;;3.10
41940;BMP180;23057;48.554;14.454;2023-03-01T03:46:19;94214.00;;;3.10
41940;BMP180;23057;48.554;14.454;2023-03-01T03:48:49;94218.00;;;3.10
41940;BMP180;23057;48.554;14.454;2023-03-01T03:51:20;94216.00;;;3.10
41940;BMP180;23057;48.554;14.454;2023-03-01T03:53:53;94213.00;;;3.10
41940;BMP180;23057;48.554;14.454;2023-03-01T03:56:23;94212.00;;;3.10
41940;BMP180;23057;48.554;14.454;2023-03-01T03:58:56;94207.00;;;3.00
41940;BMP180;23057;48.554;14.454;2023-03-01T04:01:26;94192.00;;;3.00
41940;BMP180;23057;48.554;14.454;2023-03-01T04:03:57;94194.00;;;3.00
41940;BMP180;23057;48.554;14.454;2023-03-01T04:06:33;94194.00;;;3.00
41940;BMP180;23057;48.554;14.454;2023-03-01T04:09:04;94199.00;;;2.90
41940;BMP180;23057;48.554;14.454;2023-03-01T04:11:35;94200.00;;;2.90
41940;BMP180;23057;48.554;14.454;2023-03-01T04:14:05;94188.00;;;2.90
41940;BMP180;23057;48.554;14.454;2023-03-01T04:16:36;94197.00;;;2.90
41940;BMP180;23057;48.554;14.454;2023-03-01T04:19:07;94192.00;;;2.90
41940;BMP180;23057;48.554;14.454;2023-03-01T04:21:39;94190.00;;;2.90
41940;BMP180;23057;48.554;14.454;2023-03-01T04:24:10;94179.00;;;2.80
41940;BMP180;23057;48.554;14.454;2023-03-01T04:26:41;94190.00;;;2.80
41940;BMP180;23057;48.554;14.454;2023-03-01T04:29:12;94197.00;;;2.80
41940;BMP180;23057;48.554;14.454;2023-03-01T04:31:42;94193.00;;;2.80
41940;BMP180;23057;48.554;14.454;2023-03-01T04:34:13;94185.00;;;2.80
41940;BMP180;23057;48.554;14.454;2023-03-01T04:36:44;94181.00;;;2.80
41940;BMP180;23057;48.554;14.454;2023-03-01T04:39:15;94183.00;;;2.70
41940;BMP180;23057;48.554;14.454;2023-03-01T04:41:46;94189.00;;;2.70
41940;BMP180;23057;48.554;14.454;2023-03-01T04:44:17;94178.00;;;2.70
41940;BMP180;23057;48.554;14.454;2023-03-01T04:46:49;94172.00;;;2.70
41940;BMP180;23057;48.554;14.454;2023-03-01T04:49:20;94184.00;;;2.70
41940;BMP180;23057;48.554;14.454;2023-03-01T04:51:51;94185.00;;;2.70
41940;BMP180;23057;48.554;14.454;2023-03-01T04:54:21;94185.00;;;2.70
41940;BMP180;23057;48.554;14.454;2023-03-01T04:56:53;94190.00;;;2.70
41940;BMP180;23057;48.554;14.454;2023-03-01T04:59:25;94183.00;;;2.60
41940;BMP180;23057;48.554;14.454;2023-03-01T05:01:56;94183.00;;;2.60
41940;BMP180;23057;48.554;14.454;2023-03-01T05:04:27;94193.00;;;2.60
41940;BMP180;23057;48.554;14.454;2023-03-01T05:06:58;94188.00;;;2.70
41940;BMP180;23057;48.554;14.454;2023-03-01T05:09:29;94184.00;;;2.60
41940;BMP180;23057;48.554;14.454;2023-03-01T05:11:59;94172.00;;;2.70
41940;BMP180;23057;48.554;14.454;2023-03-01T05:14:30;94180.00;;;2.70
41940;BMP180;23057;48.554;14.454;2023-03-01T05:17:01;94181.00;;;2.70
41940;BMP180;23057;48.554;14.454;2023-03-01T05:19:34;94179.00;;;2.70
41940;BMP180;23057;48.554;14.454;2023-03-01T05:22:05;94185.00;;;2.70
41940;BMP180;23057;48.554;14.454;2023-03-01T05:24:36;94182.00;;;2.70
41940;BMP180;23057;48.554;14.454;2023-03-01T05:27:06;94182.00;;;2.70
41940;BMP180;23057;48.554;14.454;2023-03-01T05:29:37;94170.00;;;2.70
41940;BMP180;23057;48.554;14.454;2023-03-01T05:32:09;94170.00;;;2.70
41940;BMP180;23057;48.554;14.454;2023-03-01T05:34:45;94179.00;;;2.70
41940;BMP180;23057;48.554;14.454;2023-03-01T05:37:16;94166.00;;;2.70
41940;BMP180;23057;48.554;14.454;2023-03-01T05:39:47;94180.00;;;2.60
41940;BMP180;23057;48.554;14.454;2023-03-01T05:42:20;94172.00;;;2.60
41940;BMP180;23057;48.554;14.454;2023-03-01T05:44:51;94189.00;;;2.60
41940;BMP180;23057;48.554;14.454;2023-03-01T05:47:22;94180.00;;;2.60
41940;BMP180;23057;48.554;14.454;2023-03-01T05:49:52;94184.00;;;2.60
41940;BMP180;23057;48.554;14.454;2023-03-01T05:52:23;94183.00;;;2.60
41940;BMP180;23057;48.554;14.454;2023-03-01T05:54:54;94177.00;;;2.60
41940;BMP180;23057;48.554;14.454;2023-03-01T05:57:28;94196.00;;;2.60
41940;BMP180;23057;48.554;14.454;2023-03-01T05:59:59;94193.00;;;2.70
41940;BMP180;23057;48.554;14.454;2023-03-01T06:02:30;94194.00;;;2.70
41940;BMP180;23057;48.554;14.454;2023-03-01T06:05:00;94190.00;;;2.80
41940;BMP180;23057;48.554;14.454;2023-03-01T06:07:31;94190.00;;;2.80
41940;BMP180;23057;48.554;14.454;2023-03-01T06:10:03;94200.00;;;2.90
41940;BMP180;23057;48.554;14.454;2023-03-01T06:12:37;94196.00;;;3.10
41940;BMP180;23057;48.554;14.454;2023-03-01T06:15:14;94198.00;;;3.20
41940;BMP180;23057;48.554;14.454;2023-03-01T06:17:46;94200.00;;;3.30
41940;BMP180;23057;48.554;14.454;2023-03-01T06:20:21;94201.00;;;3.40
41940;BMP180;23057;48.554;14.454;2023-03-01T06:22:54;94203.00;;;3.50
41940;BMP180;23057;48.554;14.454;2023-03-01T06:25:26;94207.00;;;3.60
41940;BMP180;23057;48.554;14.454;2023-03-01T06:27:58;94210.00;;;3.70
41940;BMP180;23057;48.554;14.454;2023-03-01T06:30:28;94210.00;;;3.90
41940;BMP180;23057;48.554;14.454;2023-03-01T06:32:59;94215.00;;;4.00
41940;BMP180;23057;48.554;14.454;2023-03-01T06:35:33;94215.00;;;4.20
41940;BMP180;23057;48.554;14.454;2023-03-01T06:38:04;94220.00;;;4.40
41940;BMP180;23057;48.554;14.454;2023-03-01T06:40:36;94223.00;;;4.50
41940;BMP180;23057;48.554;14.454;2023-03-01T06:43:07;94233.00;;;4.60
41940;BMP180;23057;48.554;14.454;2023-03-01T06:45:38;94230.00;;;4.70
41940;BMP180;23057;48.554;14.454;2023-03-01T06:48:08;94225.00;;;4.90
41940;BMP180;23057;48.554;14.454;2023-03-01T06:50:39;94235.00;;;5.00
41940;BMP180;23057;48.554;14.454;2023-03-01T06:53:10;94229.00;;;5.00
41940;BMP180;23057;48.554;14.454;2023-03-01T06:55:41;94230.00;;;5.20
41940;BMP180;23057;48.554;14.454;2023-03-01T06:58:12;94222.00;;;5.20
41940;BMP180;23057;48.554;14.454;2023-03-01T07:00:42;94231.00;;;5.40
41940;BMP180;23057;48.554;14.454;2023-03-01T07:03:14;94236.00;;;5.80
41940;BMP180;23057;48.554;14.454;2023-03-01T07:05:45;94229.00;;;6.20
41940;BMP180;23057;48.554;14.454;2023-03-01T07:08:18;94235.00;;;6.40
41940;BMP180;23057;48.554;14.454;2023-03-01T07:10:55;94229.00;;;6.50
41940;BMP180;23057;48.554;14.454;2023-03-01T07:13:26;94233.00;;;6.50
41940;BMP180;23057;48.554;14.454;2023-03-01T07:15:57;94222.00;;;6.60
41940;BMP180;23057;48.554;14.454;2023-03-01T07:18:28;94221.00;;;6.60
41940;BMP180;23057;48.554;14.454;2023-03-01T07:21:03;94228.00;;;6.70
41940;BMP180;23057;48.554;14.454;2023-03-01T07:23:36;94226.00;;;6.80
41940;BMP180;23057;48.554;14.454;2023-03-01T07:26:07;94224.00;;;6.80
41940;BMP180;23057;48.554;14.454;2023-03-01T07:28:37;94221.00;;;6.90
41940;BMP180;23057;48.554;14.454;2023-03-01T07:31:09;94202.00;;;6.90
41940;BMP180;23057;48.554;14.454;2023-03-01T07:33:40;94213.00;;;6.90
41940;BMP180;23057;48.554;14.454;2023-03-01T07:36:11;94215.00;;;6.90
41940;BMP180;23057;48.554;14.454;2023-03-01T07:38:41;94220.00;;;7.00
41940;BMP180;23057;48.554;14.454;2023-03-01T07:41:13;94239.00;;;7.10
41940;BMP180;23057;48.554;14.454;2023-03-01T07:43:43;94224.00;;;7.20
41940;BMP180;23057;48.554;14.454;2023-03-01T07:46:14;94226.00;;;7.30
41940;BMP180;23057;48.554;14.454;2023-03-01T07:48:45;94218.00;;;7.30
41940;BMP180;23057;48.554;14.454;2023-03-01T07:51:16;94222.00;;;7.30
41940;BMP180;23057;48.554;14.454;2023-03-01T07:53:47;94223.00;;;7.40
41940;BMP180;23057;48.554;14.454;2023-03-01T07:56:18;94221.00;;;7.60
41940;BMP180;23057;48.554;14.454;2023-03-01T07:58:50;94222.00;;;7.80
41940;BMP180;23057;48.554;14.454;2023-03-01T08:01:21;94217.00;;;7.90
41940;BMP180;23057;48.554;14.454;2023-03-01T08:03:52;94224.00;;;8.00
41940;BMP180;23057;48.554;14.454;2023-03-01T08:06:23;94225.00;;;8.20
41940;BMP180;23057;48.554;14.454;2023-03-01T08:08:54;94221.00;;;8.30
41940;BMP180;23057;48.554;14.454;2023-03-01T08:11:25;94219.00;;;8.40
41940;BMP180;23057;48.554;14.454;2023-03-01T08:13:58;94217.00;;;8.40
41940;BMP180;23057;48.554;14.454;2023-03-01T08:16:29;94218.00;;;8.30
41940;BMP180;23057;48.554;14.454;2023-03-01T08:19:07;94214.00;;;8.30
41940;BMP180;23057;48.554;14.454;2023-03-01T08:21:39;94202.00;;;8.30
41940;BMP180;23057;48.554;14.454;2023-03-01T08:24:10;94200.00;;;8.40
41940;BMP180;23057;48.554;14.454;2023-03-01T08:26:41;94200.00;;;8.30
41940;BMP180;23057;48.554;14.454;2023-03-01T08:29:11;94193.00;;;8.40
41940;BMP180;23057;48.554;14.454;2023-03-01T08:31:42;94196.00;;;8.40
41940;BMP180;23057;48.554;14.454;2023-03-01T08:34:15;94192.00;;;8.40
41940;BMP180;23057;48.554;14.454;2023-03-01T08:36:47;94189.00;;;8.40
41940;BMP180;23057;48.554;14.454;2023-03-01T08:39:19;94185.00;;;8.40
41940;BMP180;23057;48.554;14.454;2023-03-01T08:41:52;94187.00;;;8.50
41940;BMP180;23057;48.554;14.454;2023-03-01T08:44:22;94187.00;;;8.60
41940;BMP180;23057;48.554;14.454;2023-03-01T08:46:53;94183.00;;;8.70
41940;BMP180;23057;48.554;14.454;2023-03-01T08:49:25;94180.00;;;8.80
41940;BMP180;23057;48.554;14.454;2023-03-01T08:51:56;94177.00;;;8.90
41940;BMP180;23057;48.554;14.454;2023-03-01T08:54:27;94162.00;;;9.10
41940;BMP180;23057;48.554;14.454;2023-03-01T08:57:01;94177.00;;;9.20
41940;BMP180;23057;48.554;14.454;2023-03-01T08:59:33;94173.00;;;9.30
41940;BMP180;23057;48.554;14.454;2023-03-01T09:02:13;94165.00;;;9.30
41940;BMP180;23057;48.554;14.454;2023-03-01T09:04:45;94168.00;;;9.40
41940;BMP180;23057;48.554;14.454;2023-03-01T09:07:16;94168.00;;;9.50
41940;BMP180;23057;48.554;14.454;2023-03-01T09:09:47;94162.00;;;9.60
41940;BMP180;23057;48.554;14.454;2023-03-01T09:12:18;94159.00;;;9.70
41940;BMP180;23057;48.554;14.454;2023-03-01T09:14:48;94142.00;;;9.80
41940;BMP180;23057;48.554;14.454;2023-03-01T09:17:19;94155.00;;;9.80
41940;BMP180;23057;48.554;14.454;2023-03-01T09:19:51;94147.00;;;9.90
41940;BMP180;23057;48.554;14.454;2023-03-01T09:22:22;94145.00;;;9.90
41940;BMP180;23057;48.554;14.454;2023-03-01T09:24:53;94141.00;;;10.00
41940;BMP180;23057;48.554;14.454;2023-03-01T09:27:24;94147.00;;;10.00
41940;BMP180;23057;48.554;14.454;2023-03-01T09:29:55;94144.00;;;10.10
41940;BMP180;23057;48.554;14.454;2023-03-01T09:32:26;94147.00;;;10.20
41940;BMP180;23057;48.554;14.454;2023-03-01T09:34:57;94141.00;;;10.30
41940;BMP180;23057;48.554;14.454;2023-03-01T09:37:32;94129.00;;;10.40
41940;BMP180;23057;48.554;14.454;2023-03-01T09:40:05;94121.00;;;10.40
41940;BMP180;23057;48.554;14.454;2023-03-01T09:42:46;94122.00;;;10.40
41940;BMP180;23057;48.554;14.454;2023-03-01T09:45:27;94115.00;;;10.70
41940;BMP180;23057;48.554;14.454;2023-03-01T09:48:06;94114.00;;;10.80
41940;BMP180;23057;48.554;14.454;2023-03-01T09:50:45;94114.00;;;10.90
41940;BMP180;23057;48.554;14.454;2023-03-01T09:53:21;94126.00;;;11.00
41940;BMP180;23057;48.554;14.454;2023-03-01T09:56:11;94121.00;;;11.10
41940;BMP180;23057;48.554;14.454;2023-03-01T10:04:47;94108.00;;;11.50
41940;BMP180;23057;48.554;14.454;2023-03-01T10:10:33;94102.00;;;11.50
41940;BMP180;23057;48.554;14.454;2023-03-01T10:16:16;94093.00;;;11.50
41940;BMP180;23057;48.554;14.454;2023-03-01T10:18:58;94093.00;;;11.50
41940;BMP180;23057;48.554;14.454;2023-03-01T10:21:36;94088.00;;;11.60
41940;BMP180;23057;48.554;14.454;2023-03-01T10:24:15;94099.00;;;11.70
41940;BMP180;23057;48.554;14.454;2023-03-01T10:26:55;94096.00;;;11.80
41940;BMP180;23057;48.554;14.454;2023-03-01T10:29:37;94089.00;;;11.80
41940;BMP180;23057;48.554;14.454;2023-03-01T10:32:14;94088.00;;;11.80
41940;BMP180;23057;48.554;14.454;2023-03-01T10:34:45;94081.00;;;11.80
41940;BMP180;23057;48.554;14.454;2023-03-01T10:37:17;94079.00;;;11.90
41940;BMP180;23057;48.554;14.454;2023-03-01T10:39:57;94080.00;;;11.90
41940;BMP180;23057;48.554;14.454;2023-03-01T10:42:40;94068.00;;;11.90
41940;BMP180;23057;48.554;14.454;2023-03-01T10:48:04;94061.00;;;11.80
41940;BMP180;23057;48.554;14.454;2023-03-01T10:50:35;94050.00;;;11.90
41940;BMP180;23057;48.554;14.454;2023-03-01T10:56:07;94043.00;;;12.00
41940;BMP180;23057;48.554;14.454;2023-03-01T10:59:05;94040.00;;;12.00
41940;BMP180;23057;48.554;14.454;2023-03-01T11:04:56;94025.00;;;12.00
41940;BMP180;23057;48.554;14.454;2023-03-01T11:07:27;94018.00;;;12.00
41940;BMP180;23057;48.554;14.454;2023-03-01T11:09:59;94017.00;;;12.10
41940;BMP180;23057;48.554;14.454;2023-03-01T11:12:29;94011.00;;;12.10
41940;BMP180;23057;48.554;14.454;2023-03-01T11:15:00;94018.00;;;12.20
41940;BMP180;23057;48.554;14.454;2023-03-01T11:17:33;94019.00;;;12.30
41940;BMP180;23057;48.554;14.454;2023-03-01T11:23:01;94007.00;;;12.40
41940;BMP180;23057;48.554;14.454;2023-03-01T11:25:42;93995.00;;;12.50
41940;BMP180;23057;48.554;14.454;2023-03-01T11:28:18;93997.00;;;12.60
41940;BMP180;23057;48.554;14.454;2023-03-01T11:30:58;93992.00;;;12.60
41940;BMP180;23057;48.554;14.454;2023-03-01T11:33:50;93985.00;;;12.80
41940;BMP180;23057;48.554;14.454;2023-03-01T11:36:54;93981.00;;;12.90
41940;BMP180;23057;48.554;14.454;2023-03-01T11:39:42;93977.00;;;13.00
41940;BMP180;23057;48.554;14.454;2023-03-01T11:42:23;93970.00;;;13.00
41940;BMP180;23057;48.554;14.454;2023-03-01T11:45:08;93963.00;;;13.10
41940;BMP180;23057;48.554;14.454;2023-03-01T11:48:06;93978.00;;;13.20
41940;BMP180;23057;48.554;14.454;2023-03-01T11:50:55;93960.00;;;13.30
41940;BMP180;23057;48.554;14.454;2023-03-01T11:56:36;93971.00;;;13.40
41940;BMP180;23057;48.554;14.454;2023-03-01T11:59:20;93967.00;;;13.50
41940;BMP180;23057;48.554;14.454;2023-03-01T12:05:27;93968.00;;;13.60
41940;BMP180;23057;48.554;14.454;2023-03-01T12:08:44;93971.00;;;13.70
41940;BMP180;23057;48.554;14.454;2023-03-01T12:14:40;93969.00;;;14.00
41940;BMP180;23057;48.554;14.454;2023-03-01T12:26:34;93970.00;;;14.10
41940;BMP180;23057;48.554;14.454;2023-03-01T12:32:22;93960.00;;;14.20
41940;BMP180;23057;48.554;14.454;2023-03-01T12:38:13;93961.00;;;14.10
41940;BMP180;23057;48.554;14.454;2023-03-01T12:43:58;93958.00;;;14.20
41940;BMP180;23057;48.554;14.454;2023-03-01T12:49:29;93957.00;;;14.20
41940;BMP180;23057;48.554;14.454;2023-03-01T12:52:29;93965.00;;;14.20
41940;BMP180;23057;48.554;14.454;2023-03-01T12:55:39;93968.00;;;14.20
41940;BMP180;23057;48.554;14.454;2023-03-01T12:59:11;93958.00;;;14.10
41940;BMP180;23057;48.554;14.454;2023-03-01T13:08:22;93955.00;;;14.00
41940;BMP180;23057;48.554;14.454;2023-03-01T13:10:59;93958.00;;;13.90
41940;BMP180;23057;48.554;14.454;2023-03-01T13:13:32;93964.00;;;13.90
41940;BMP180;23057;48.554;14.454;2023-03-01T13:16:43;93957.00;;;13.90
41940;BMP180;23057;48.554;14.454;2023-03-01T13:19:25;93958.00;;;13.80
41940;BMP180;23057;48.554;14.454;2023-03-01T13:22:26;93947.00;;;13.70
41940;BMP180;23057;48.554;14.454;2023-03-01T13:25:22;93958.00;;;13.60
41940;BMP180;23057;48.554;14.454;2023-03-01T13:33:46;93970.00;;;13.40
41940;BMP180;23057;48.554;14.454;2023-03-01T13:36:47;93965.00;;;13.30
41940;BMP180;23057;48.554;14.454;2023-03-01T13:39:39;93979.00;;;13.20
41940;BMP180;23057;48.554;14.454;2023-03-01T13:42:42;94000.00;;;13.10
41940;BMP180;23057;48.554;14.454;2023-03-01T13:45:25;93988.00;;;13.10
41940;BMP180;23057;48.554;14.454;2023-03-01T13:48:18;93996.00;;;13.10
41940;BMP180;23057;48.554;14.454;2023-03-01T13:51:02;93980.00;;;13.10
41940;BMP180;23057;48.554;14.454;2023-03-01T13:53:40;93996.00;;;13.10
41940;BMP180;23057;48.554;14.454;2023-03-01T13:56:17;93992.00;;;13.00
41940;BMP180;23057;48.554;14.454;2023-03-01T13:58:58;93989.00;;;13.00
41940;BMP180;23057;48.554;14.454;2023-03-01T14:01:36;94001.00;;;13.00
41940;BMP180;23057;48.554;14.454;2023-03-01T14:04:22;93997.00;;;13.00
41940;BMP180;23057;48.554;14.454;2023-03-01T14:07:12;93994.00;;;12.90
41940;BMP180;23057;48.554;14.454;2023-03-01T14:09:45;93988.00;;;12.80
41940;BMP180;23057;48.554;14.454;2023-03-01T14:15:23;93991.00;;;12.60
41940;BMP180;23057;48.554;14.454;2023-03-01T14:18:17;93990.00;;;12.60
41940;BMP180;23057;48.554;14.454;2023-03-01T14:20:56;93990.00;;;12.60
41940;BMP180;23057;48.554;14.454;2023-03-01T14:23:27;93990.00;;;12.60
41940;BMP180;23057;48.554;14.454;2023-03-01T14:25:59;93996.00;;;12.50
41940;BMP180;23057;48.554;14.454;2023-03-01T14:28:31;93990.00;;;12.50
41940;BMP180;23057;48.554;14.454;2023-03-01T14:31:37;93987.00;;;12.40
41940;BMP180;23057;48.554;14.454;2023-03-01T14:34:20;93983.00;;;12.40
41940;BMP180;23057;48.554;14.454;2023-03-01T14:36:52;93976.00;;;12.40
41940;BMP180;23057;48.554;14.454;2023-03-01T14:39:25;93972.00;;;12.40
41940;BMP180;23057;48.554;14.454;2023-03-01T14:41:58;93978.00;;;12.40
41940;BMP180;23057;48.554;14.454;2023-03-01T14:44:28;93963.00;;;12.30
41940;BMP180;23057;48.554;14.454;2023-03-01T14:47:00;93961.00;;;12.30
41940;BMP180;23057;48.554;14.454;2023-03-01T14:49:32;93968.00;;;12.20
41940;BMP180;23057;48.554;14.454;2023-03-01T14:52:05;93972.00;;;12.20
41940;BMP180;23057;48.554;14.454;2023-03-01T14:54:48;93976.00;;;12.20
41940;BMP180;23057;48.554;14.454;2023-03-01T14:57:24;93986.00;;;12.20
41940;BMP180;23057;48.554;14.454;2023-03-01T15:00:02;93964.00;;;12.20
41940;BMP180;23057;48.554;14.454;2023-03-01T15:02:36;93963.00;;;12.20
41940;BMP180;23057;48.554;14.454;2023-03-01T15:05:08;93956.00;;;12.20
41940;BMP180;23057;48.554;14.454;2023-03-01T15:07:42;93964.00;;;12.20
41940;BMP180;23057;48.554;14.454;2023-03-01T15:10:28;93950.00;;;12.20
41940;BMP180;23057;48.554;14.454;2023-03-01T15:13:22;93937.00;;;12.10
41940;BMP180;23057;48.554;14.454;2023-03-01T15:16:11;93947.00;;;12.10
41940;BMP180;23057;48.554;14.454;2023-03-01T15:18:49;93940.00;;;12.10
41940;BMP180;23057;48.554;14.454;2023-03-01T15:21:31;93944.00;;;12.00
41940;BMP180;23057;48.554;14.454;2023-03-01T15:24:06;93948.00;;;12.00
41940;BMP180;23057;48.554;14.454;2023-03-01T15:29:26;93943.00;;;11.90
41940;BMP180;23057;48.554;14.454;2023-03-01T15:32:03;93937.00;;;11.80
41940;BMP180;23057;48.554;14.454;2023-03-01T15:34:37;93941.00;;;11.70
41940;BMP180;23057;48.554;14.454;2023-03-01T15:40:35;93951.00;;;11.50
41940;BMP180;23057;48.554;14.454;2023-03-01T15:43:41;93953.00;;;11.40
41940;BMP180;23057;48.554;14.454;2023-03-01T15:46:25;93956.00;;;11.30
41940;BMP180;23057;48.554;14.454;2023-03-01T15:49:04;93963.00;;;11.20
41940;BMP180;23057;48.554;14.454;2023-03-01T15:51:49;93963.00;;;11.10
41940;BMP180;23057;48.554;14.454;2023-03-01T15:54:24;93968.00;;;11.00
41940;BMP180;23057;48.554;14.454;2023-03-01T15:56:57;93961.00;;;11.00
41940;BMP180;23057;48.554;14.454;2023-03-01T15:59:28;93963.00;;;10.90
41940;BMP180;23057;48.554;14.454;2023-03-01T16:01:58;93965.00;;;10.70
41940;BMP180;23057;48.554;14.454;2023-03-01T16:04:29;93972.00;;;10.70
41940;BMP180;23057;48.554;14.454;2023-03-01T16:07:00;93967.00;;;10.60
41940;BMP180;23057;48.554;14.454;2023-03-01T16:09:31;93974.00;;;10.50
41940;BMP180;23057;48.554;14.454;2023-03-01T16:12:02;93968.00;;;10.50